Alton, AL

6:08 AM CST on December 11, 2019 (GMT -0600)
East Birmingham/Trussville | | Change Station
Active Advisory: Special Statement

Elev 748 ft 33.61 °N, 86.65 °W | Updated 13 seconds ago

Clear
Clear
28.6 °F
Feels Like 29 °F
N
0.2
Wind Variable Wind from NNW
Gusts 1.1 mph

Today
High -- | Low -- °F
--% Chance of Precip.
Yesterday
High -- | Low -- °F
Precip. -- in
Pressure 30.47 in
Visibility 10.0 miles
Clouds Clear
Windchill 29 °F
Dew Point 28 °F
Humidity 99%
Rainfall 0.00 in
Snow Depth Not available.
6:40 AM 4:38 PM
Waxing Gibbous, 99% visible
METAR KBHM 111153Z 01007KT 10SM CLR M01/M02 A3046 RMK AO2 SLP318 60000 70064 T10061022 10017 21006 53009
Pressure 30.47 in
Visibility 10.0 miles
Clouds Clear
Windchill 29 °F
Dew Point 28 °F
Humidity 99%
Rainfall 0.00 in
Snow Depth Not available.
6:40 AM 4:38 PM
Waxing Gibbous, 99% visible
METAR KBHM 111153Z 01007KT 10SM CLR M01/M02 A3046 RMK AO2 SLP318 60000 70064 T10061022 10017 21006 53009

Get Your Daily Forecast Email!

Thanks for signing up!

Be on the lookout for a verification email in your inbox.

You'll start receiving severe weather alerts in your inbox..

×

10-Day Weather Forecast

Almanac

Astronomy

Dec. 11, 2019 Rise Set
Actual Time
Civil Twilight
Nautical Twilight
Astronomical Twilight
Moon
Length of Visible Light
Length of Day
Tomorrow will be .
, % of the Moon is Illuminated

Today's Extremes

State Highs State Lows

Community

WunderPhotos

Category 6

Welcome to Category 6. This is the collective home for Weather Underground's featured writeups by Dr. Jeff Masters (right), Bob Henson (left), Chris Burt, and other regular contributors.

Nearby

Air Quality

  Air Quality AQ Index Pollutant
Not available.

Snow Depth

Station Depth Elevation

Earthquake Activity

City Distance Mag. Time & Date
Minimum magnitude displayed is 2.5.

Coastal Water Temperatures

Place Temperature

Stations

Nearby Weather Stations

Station Location Temp. Windchill Dew Point Humidity Wind Precip. Elev Updated Type
                   

Watches & Warnings

Special Statement
Issued: 11:09 PM CST Dec. 10, 2019 – National Weather Service

Temperatures falling below freezing with residual moisture on local
roadways will lead to the possibility of hazardous travel in some
areas late tonight into early Wednesday morning. Patchy ice may
create slick spots on some local roads... bridges and overpasses in
less travelled areas. Please use extra caution if you have to
travel. Temperatures will rise above freezing by 9 am.



1109 PM CST Tue Dec 10 2019

Temperatures falling below freezing with residual moisture on local
roadways will lead to the possibility of hazardous travel in some
areas late tonight into early Wednesday morning. Patchy ice may
create slick spots on some local roads... bridges and overpasses in
less travelled areas. Please use extra caution if you have to
travel. Temperatures will rise above freezing by 9 am.